createdAt,value
2018-02-15T00:01:15.801Z,-0.90
2018-02-15T00:03:44.073Z,-0.80
2018-02-15T00:06:12.317Z,-0.70
2018-02-15T00:08:39.801Z,-0.70
2018-02-15T00:11:08.071Z,-0.70
2018-02-15T00:13:36.321Z,-0.70
2018-02-15T00:16:03.804Z,-0.70
2018-02-15T00:18:32.065Z,-0.70
2018-02-15T00:20:59.552Z,-0.70
2018-02-15T00:23:27.037Z,-0.70
2018-02-15T00:25:54.552Z,-0.60
2018-02-15T00:28:22.801Z,-0.70
2018-02-15T00:30:50.289Z,-0.70
2018-02-15T00:33:18.561Z,-0.60
2018-02-15T00:35:46.810Z,-0.60
2018-02-15T00:38:14.289Z,-0.60
2018-02-15T00:40:42.557Z,-0.60
2018-02-15T00:43:10.041Z,-0.60
2018-02-15T00:45:37.557Z,-0.70
2018-02-15T00:48:05.057Z,-0.60
2018-02-15T00:50:32.537Z,-0.60
2018-02-15T00:53:00.025Z,-0.60
2018-02-15T00:55:27.529Z,-0.50
2018-02-15T00:57:55.325Z,-0.60
2018-02-15T01:00:22.809Z,-0.50
2018-02-15T01:02:50.312Z,-0.60
2018-02-15T01:05:17.789Z,-0.50
2018-02-15T01:07:45.309Z,-0.50
2018-02-15T01:10:13.593Z,-0.40
2018-02-15T01:12:41.838Z,-0.40
2018-02-15T01:15:09.317Z,-0.40
2018-02-15T01:17:37.589Z,-0.40
2018-02-15T01:20:05.833Z,-0.30
2018-02-15T01:22:33.317Z,-0.30
2018-02-15T01:25:01.605Z,-0.30
2018-02-15T01:27:29.853Z,-0.30
2018-02-15T01:29:57.341Z,-0.30
2018-02-15T01:32:25.613Z,-0.40
2018-02-15T01:34:53.855Z,-0.30
2018-02-15T01:37:21.336Z,-0.30
2018-02-15T01:39:48.861Z,-0.30
2018-02-15T01:42:16.337Z,-0.20
2018-02-15T01:44:45.325Z,-0.20
2018-02-15T01:47:13.659Z,-0.20
2018-02-15T01:49:53.040Z,-0.20
2018-02-15T01:52:20.554Z,-0.20
2018-02-15T01:54:48.035Z,-0.20
2018-02-15T01:57:15.533Z,-0.30
2018-02-15T01:59:43.097Z,-0.30
2018-02-15T02:02:11.341Z,-0.10
2018-02-15T02:04:38.824Z,-0.20
2018-02-15T02:07:07.084Z,0.00
2018-02-15T02:09:34.561Z,0.00
2018-02-15T02:12:02.810Z,0.10
2018-02-15T02:14:30.310Z,0.00
2018-02-15T02:16:57.793Z,0.10
2018-02-15T02:19:25.264Z,0.10
2018-02-15T02:21:52.756Z,0.10
2018-02-15T02:24:21.001Z,0.10
2018-02-15T02:26:48.485Z,0.10
2018-02-15T02:29:16.774Z,0.20
2018-02-15T02:31:45.013Z,0.20
2018-02-15T02:34:13.346Z,0.20
2018-02-15T02:36:41.222Z,0.30
2018-02-15T02:39:08.707Z,0.30
2018-02-15T02:41:36.184Z,0.40
2018-02-15T02:44:03.686Z,0.40
2018-02-15T02:46:31.224Z,0.30
2018-02-15T02:48:59.464Z,0.40
2018-02-15T02:51:26.965Z,0.40
2018-02-15T02:53:54.441Z,0.40
2018-02-15T02:56:21.965Z,0.40
2018-02-15T02:58:50.309Z,0.40
2018-02-15T03:01:17.790Z,0.40
2018-02-15T03:03:45.269Z,0.40
2018-02-15T03:06:12.772Z,0.50
2018-02-15T03:08:40.249Z,0.40
2018-02-15T03:11:07.728Z,0.50
2018-02-15T03:13:36.256Z,0.50
2018-02-15T03:16:04.017Z,0.50
2018-02-15T03:18:31.497Z,0.60
2018-02-15T03:20:58.996Z,0.50
2018-02-15T03:23:26.479Z,0.50
2018-02-15T03:25:53.956Z,0.50
2018-02-15T03:28:21.457Z,0.60
2018-02-15T03:30:49.702Z,0.50
2018-02-15T03:33:17.298Z,0.50
2018-02-15T03:35:45.560Z,0.60
2018-02-15T03:38:13.037Z,0.60
2018-02-15T03:40:40.524Z,0.60
2018-02-15T03:43:08.042Z,0.60
2018-02-15T03:45:36.293Z,0.50
2018-02-15T03:48:03.769Z,0.50
2018-02-15T03:50:32.033Z,0.60
2018-02-15T03:52:59.513Z,0.60
2018-02-15T03:55:27.760Z,0.60
2018-02-15T03:57:55.256Z,0.60
2018-02-15T04:00:22.732Z,0.60
2018-02-15T04:02:50.209Z,0.70
2018-02-15T04:05:17.708Z,0.70
2018-02-15T04:07:45.953Z,0.70
2018-02-15T04:10:13.434Z,0.70
2018-02-15T04:12:41.729Z,0.70
2018-02-15T04:15:09.281Z,0.70
2018-02-15T04:17:37.568Z,0.80
2018-02-15T04:20:05.037Z,0.80
2018-02-15T04:22:33.576Z,0.80
2018-02-15T04:25:01.857Z,0.80
2018-02-15T04:27:30.121Z,0.80
2018-02-15T04:29:57.600Z,0.80
2018-02-15T04:32:25.849Z,0.90
2018-02-15T04:34:53.350Z,0.80
2018-02-15T04:37:20.833Z,0.80
2018-02-15T04:39:48.312Z,0.80
2018-02-15T04:42:15.809Z,0.80
2018-02-15T04:44:44.093Z,0.90
2018-02-15T04:47:11.647Z,0.80
2018-02-15T04:49:40.268Z,0.90
2018-02-15T04:52:07.748Z,0.90
2018-02-15T04:54:35.230Z,0.90
2018-02-15T04:57:03.501Z,0.90
2018-02-15T04:59:31.789Z,0.90
2018-02-15T05:02:00.042Z,0.90
2018-02-15T05:04:27.545Z,0.90
2018-02-15T05:06:55.021Z,0.80
2018-02-15T05:09:22.632Z,0.90
2018-02-15T05:11:50.149Z,0.80
2018-02-15T05:14:17.630Z,0.80
2018-02-15T05:16:45.109Z,0.70
2018-02-15T05:19:13.425Z,0.70
2018-02-15T05:21:40.948Z,0.70
2018-02-15T05:24:09.193Z,0.60
2018-02-15T05:26:36.685Z,0.60
2018-02-15T05:29:04.164Z,0.70
2018-02-15T05:31:31.693Z,0.60
2018-02-15T05:33:59.957Z,0.60
2018-02-15T05:36:27.434Z,0.60
2018-02-15T05:38:55.948Z,0.70
2018-02-15T05:41:23.453Z,0.70
2018-02-15T05:43:50.937Z,0.70
2018-02-15T05:46:18.485Z,0.70
2018-02-15T05:48:46.752Z,0.80
2018-02-15T05:51:15.025Z,0.80
2018-02-15T05:53:43.264Z,0.80
2018-02-15T05:56:10.767Z,0.80
2018-02-15T05:58:39.008Z,0.90
2018-02-15T06:01:06.484Z,0.90
2018-02-15T06:03:34.772Z,1.00
2018-02-15T06:06:03.012Z,1.00
2018-02-15T06:08:30.489Z,0.90
2018-02-15T06:10:57.984Z,0.90
2018-02-15T06:13:25.521Z,0.90
2018-02-15T06:15:53.797Z,1.00
2018-02-15T06:18:22.065Z,1.00
2018-02-15T06:20:50.304Z,0.90
2018-02-15T06:23:18.056Z,0.90
2018-02-15T06:25:45.556Z,1.00
2018-02-15T06:28:13.804Z,1.00
2018-02-15T06:30:41.280Z,1.00
2018-02-15T06:33:08.781Z,1.10
2018-02-15T06:35:36.321Z,1.10
2018-02-15T06:38:04.569Z,1.20
2018-02-15T06:40:32.069Z,1.20
2018-02-15T06:42:59.856Z,1.20
2018-02-15T06:45:27.373Z,1.30
2018-02-15T06:47:55.640Z,1.40
2018-02-15T06:50:23.888Z,1.40
2018-02-15T06:52:51.369Z,1.40
2018-02-15T06:55:18.941Z,1.40
2018-02-15T06:57:47.185Z,1.50
2018-02-15T07:00:14.665Z,1.50
2018-02-15T07:02:42.944Z,1.60
2018-02-15T07:05:11.192Z,1.70
2018-02-15T07:07:38.674Z,1.60
2018-02-15T07:10:07.057Z,1.70
2018-02-15T07:12:35.301Z,1.70
2018-02-15T07:15:02.785Z,1.70
2018-02-15T07:17:31.317Z,1.70
2018-02-15T07:19:58.797Z,1.70
2018-02-15T07:22:26.281Z,1.70
2018-02-15T07:24:54.549Z,1.80
2018-02-15T07:27:22.025Z,1.70
2018-02-15T07:29:50.278Z,1.70
2018-02-15T07:32:17.853Z,1.70
2018-02-15T07:34:46.134Z,1.60
2018-02-15T07:37:14.449Z,1.60
2018-02-15T07:39:42.004Z,1.60
2018-02-15T07:42:09.513Z,1.50
2018-02-15T07:44:37.759Z,1.70
2018-02-15T07:47:05.252Z,1.70
2018-02-15T07:49:33.497Z,1.70
2018-02-15T07:52:00.977Z,1.70
2018-02-15T07:54:28.473Z,1.60
2018-02-15T07:56:55.948Z,1.50
2018-02-15T07:59:23.428Z,1.60
2018-02-15T08:01:51.737Z,1.60
2018-02-15T08:04:19.984Z,1.60
2018-02-15T08:06:47.481Z,1.60
2018-02-15T08:09:15.989Z,1.50
2018-02-15T08:11:43.509Z,1.50
2018-02-15T08:14:11.785Z,1.50
2018-02-15T08:16:40.054Z,1.50
2018-02-15T08:19:08.325Z,1.70
2018-02-15T08:21:36.573Z,1.70
2018-02-15T08:24:04.070Z,1.60
2018-02-15T08:26:32.346Z,1.60
2018-02-15T08:29:00.593Z,1.70
2018-02-15T08:31:28.085Z,1.70
2018-02-15T08:33:55.834Z,1.90
2018-02-15T08:36:23.308Z,1.70
2018-02-15T08:38:50.814Z,1.70
2018-02-15T08:41:18.301Z,1.80
2018-02-15T08:43:46.545Z,1.60
2018-02-15T08:46:14.175Z,1.60
2018-02-15T08:48:42.350Z,1.60
2018-02-15T08:51:09.929Z,1.60
2018-02-15T08:53:37.793Z,1.60
2018-02-15T08:56:06.260Z,1.70
2018-02-15T08:58:33.801Z,1.70
2018-02-15T09:01:01.324Z,1.70
2018-02-15T09:03:29.886Z,1.50
2018-02-15T09:05:57.384Z,1.50
2018-02-15T09:08:25.678Z,1.50
2018-02-15T09:10:53.565Z,1.50
2018-02-15T09:13:21.534Z,1.50
2018-02-15T09:15:49.141Z,1.50
2018-02-15T09:18:18.290Z,1.60
2018-02-15T09:20:45.799Z,1.60
2018-02-15T09:23:13.405Z,1.60
2018-02-15T09:25:40.884Z,1.50
2018-02-15T09:28:08.525Z,1.70
2018-02-15T09:30:36.156Z,1.80
2018-02-15T09:33:04.563Z,1.80
2018-02-15T09:35:32.088Z,1.80
2018-02-15T09:38:00.353Z,1.60
2018-02-15T09:40:28.593Z,1.50
2018-02-15T09:42:56.253Z,1.50
2018-02-15T09:45:24.336Z,1.50
2018-02-15T09:47:51.823Z,1.60
2018-02-15T09:50:20.069Z,1.50
2018-02-15T09:52:48.369Z,1.50
2018-02-15T09:55:16.826Z,1.60
2018-02-15T09:57:44.301Z,1.60
2018-02-15T10:00:12.576Z,1.50
2018-02-15T10:02:40.057Z,1.50
2018-02-15T10:05:07.608Z,1.60
2018-02-15T10:07:35.125Z,1.60
2018-02-15T10:10:02.610Z,1.60
2018-02-15T10:12:30.861Z,1.70
2018-02-15T10:14:58.365Z,1.70
2018-02-15T10:17:25.855Z,1.70
2018-02-15T10:19:53.377Z,1.80
2018-02-15T10:22:20.878Z,1.80
2018-02-15T10:24:48.361Z,1.80
2018-02-15T10:27:15.853Z,1.70
2018-02-15T10:29:43.357Z,1.90
2018-02-15T10:32:10.830Z,1.90
2018-02-15T10:34:38.308Z,2.00
2018-02-15T10:37:06.578Z,2.00
2018-02-15T10:39:34.054Z,2.00
2018-02-15T10:42:02.416Z,2.10
2018-02-15T10:44:30.697Z,2.20
2018-02-15T10:46:58.941Z,2.20
2018-02-15T10:49:26.408Z,2.20
2018-02-15T10:51:53.915Z,2.30
2018-02-15T10:54:21.405Z,2.20
2018-02-15T10:56:48.881Z,2.30
2018-02-15T10:59:16.373Z,2.30
2018-02-15T11:01:44.618Z,2.30
2018-02-15T11:17:35.597Z,2.50
2018-02-15T11:20:03.077Z,2.50
2018-02-15T11:22:31.329Z,2.90
2018-02-15T11:24:58.821Z,2.90
2018-02-15T11:27:27.061Z,3.30
2018-02-15T11:29:54.537Z,3.30
2018-02-15T11:32:22.047Z,3.50
2018-02-15T11:34:49.564Z,3.30
2018-02-15T11:37:17.797Z,3.40
2018-02-15T11:39:45.293Z,3.40
2018-02-15T11:42:13.533Z,3.50
2018-02-15T11:44:41.283Z,3.50
2018-02-15T11:47:08.774Z,3.60
2018-02-15T11:49:36.249Z,3.50
2018-02-15T11:52:04.530Z,3.50
2018-02-15T11:54:32.789Z,3.40
2018-02-15T11:57:00.265Z,3.40
2018-02-15T11:59:28.505Z,3.60
2018-02-15T12:01:56.001Z,3.50
2018-02-15T12:04:24.237Z,3.50
2018-02-15T12:06:51.716Z,3.50
2018-02-15T12:09:19.213Z,3.50
2018-02-15T12:11:46.713Z,3.60
2018-02-15T12:14:14.197Z,3.70
2018-02-15T12:16:42.456Z,3.60
2018-02-15T12:19:10.033Z,3.60
2018-02-15T12:21:38.277Z,3.40
2018-02-15T12:24:05.768Z,3.40
2018-02-15T12:26:34.041Z,3.40
2018-02-15T12:29:02.289Z,3.40
2018-02-15T12:31:29.788Z,3.40
2018-02-15T12:33:57.275Z,3.40
2018-02-15T12:36:24.831Z,3.30
2018-02-15T12:38:52.329Z,3.40
2018-02-15T12:41:19.812Z,3.30
2018-02-15T12:43:48.060Z,3.30
2018-02-15T12:46:15.553Z,3.20
2018-02-15T12:48:43.123Z,3.30
2018-02-15T12:51:10.654Z,3.30
2018-02-15T12:53:38.930Z,3.40
2018-02-15T12:56:07.200Z,3.40
2018-02-15T12:58:34.761Z,3.40
2018-02-15T13:01:03.290Z,3.60
2018-02-15T13:03:30.765Z,3.60
2018-02-15T13:05:58.240Z,3.60
2018-02-15T13:08:25.731Z,3.70
2018-02-15T13:10:53.212Z,3.60
2018-02-15T13:13:30.287Z,3.50
2018-02-15T13:16:09.757Z,3.60
2018-02-15T13:18:37.257Z,3.60
2018-02-15T13:21:05.497Z,3.50
2018-02-15T13:23:32.973Z,3.50
2018-02-15T13:26:00.474Z,3.40
2018-02-15T13:28:38.294Z,3.50
2018-02-15T13:31:05.916Z,3.60
2018-02-15T13:33:33.708Z,3.50
2018-02-15T13:36:01.181Z,3.70
2018-02-15T13:38:28.676Z,3.60
2018-02-15T13:40:56.921Z,3.50
2018-02-15T13:43:24.394Z,3.50
2018-02-15T13:45:51.969Z,3.60
2018-02-15T13:48:20.205Z,3.60
2018-02-15T13:50:47.689Z,3.50
2018-02-15T13:53:15.516Z,3.60
2018-02-15T13:55:42.990Z,3.60
2018-02-15T13:58:10.464Z,3.50
2018-02-15T14:00:38.037Z,3.50
2018-02-15T14:03:06.284Z,3.60
2018-02-15T14:05:33.757Z,3.60
2018-02-15T14:08:01.256Z,3.60
2018-02-15T14:10:28.732Z,3.60
2018-02-15T14:12:56.205Z,3.60
2018-02-15T14:15:23.718Z,3.50
2018-02-15T14:17:51.985Z,3.70
2018-02-15T14:20:20.227Z,3.70
2018-02-15T14:22:47.725Z,3.70
2018-02-15T14:25:16.237Z,3.70
2018-02-15T14:27:43.713Z,3.70
2018-02-15T14:30:11.209Z,3.70
2018-02-15T14:32:39.449Z,3.80
2018-02-15T14:35:06.920Z,3.80
2018-02-15T14:37:34.413Z,3.80
2018-02-15T14:40:02.649Z,3.80
2018-02-15T14:42:30.126Z,3.80
2018-02-15T14:44:58.385Z,3.90
2018-02-15T14:47:25.869Z,3.90
2018-02-15T14:49:54.116Z,4.00
2018-02-15T14:52:21.610Z,4.00
2018-02-15T14:54:49.163Z,4.10
2018-02-15T14:57:16.643Z,4.10
2018-02-15T14:59:44.181Z,4.10
2018-02-15T15:02:12.433Z,4.10
2018-02-15T15:04:39.909Z,4.10
2018-02-15T15:07:08.175Z,4.10
2018-02-15T15:09:36.464Z,4.10
2018-02-15T15:12:03.941Z,4.10
2018-02-15T15:14:31.443Z,4.10
2018-02-15T15:16:58.917Z,4.00
2018-02-15T15:19:26.390Z,4.10
2018-02-15T15:21:54.649Z,4.00
2018-02-15T15:24:22.121Z,4.00
2018-02-15T15:26:50.361Z,4.00
2018-02-15T15:29:17.859Z,4.00
2018-02-15T15:31:45.417Z,4.10
2018-02-15T15:34:12.893Z,4.10
2018-02-15T15:36:40.782Z,4.20
2018-02-15T15:39:08.563Z,4.10
2018-02-15T15:41:36.198Z,4.10
2018-02-15T15:44:03.717Z,4.10
2018-02-15T15:46:32.868Z,4.00
2018-02-15T15:49:00.365Z,4.00
2018-02-15T15:51:28.645Z,4.10
2018-02-15T15:53:56.134Z,4.00
2018-02-15T15:56:23.613Z,4.10
2018-02-15T15:58:51.112Z,4.10
2018-02-15T16:01:19.348Z,4.10
2018-02-15T16:03:46.821Z,4.10
2018-02-15T16:06:14.310Z,4.10
2018-02-15T16:08:42.556Z,4.10
2018-02-15T16:11:10.138Z,4.10
2018-02-15T16:13:38.418Z,4.10
2018-02-15T16:16:06.693Z,4.10
2018-02-15T16:18:35.222Z,4.10
2018-02-15T16:21:02.720Z,4.10
2018-02-15T16:23:30.194Z,4.10
2018-02-15T16:25:58.435Z,4.10
2018-02-15T16:28:25.928Z,4.10
2018-02-15T16:30:54.199Z,4.10
2018-02-15T16:33:21.897Z,4.10
2018-02-15T16:35:49.416Z,4.00
2018-02-15T16:38:17.656Z,4.00
2018-02-15T16:40:45.133Z,4.00
2018-02-15T16:43:12.625Z,4.00
2018-02-15T16:45:40.098Z,4.10
2018-02-15T16:48:07.574Z,4.10
2018-02-15T16:50:35.422Z,4.00
2018-02-15T16:53:03.082Z,4.10
2018-02-15T16:55:30.597Z,4.10
2018-02-15T16:58:00.143Z,4.10
2018-02-15T17:00:29.398Z,4.10
2018-02-15T17:05:31.653Z,4.10
2018-02-15T17:07:59.204Z,4.20
2018-02-15T17:10:26.725Z,4.20
2018-02-15T17:12:54.228Z,4.20
2018-02-15T17:15:21.712Z,4.20
2018-02-15T17:17:49.191Z,4.20
2018-02-15T17:20:16.685Z,4.20
2018-02-15T17:22:44.199Z,4.20
2018-02-15T17:25:12.440Z,4.20
2018-02-15T17:27:39.956Z,4.20
2018-02-15T17:30:07.434Z,4.20
2018-02-15T17:32:34.913Z,4.20
2018-02-15T17:35:02.412Z,4.20
2018-02-15T17:37:29.890Z,4.20
2018-02-15T17:39:57.453Z,4.30
2018-02-15T17:42:24.949Z,4.30
2018-02-15T17:44:52.533Z,4.30
2018-02-15T17:47:20.777Z,4.30
2018-02-15T17:49:48.309Z,4.30
2018-02-15T17:52:15.795Z,4.30
2018-02-15T17:54:43.277Z,4.40
2018-02-15T17:57:11.541Z,4.40
2018-02-15T17:59:39.112Z,4.40
2018-02-15T18:02:07.353Z,4.30
2018-02-15T18:04:34.848Z,4.30
2018-02-15T18:07:03.086Z,4.40
2018-02-15T18:09:30.561Z,4.40
2018-02-15T18:11:58.389Z,4.50
2018-02-15T18:14:25.884Z,4.50
2018-02-15T18:16:53.363Z,4.50
2018-02-15T18:19:22.292Z,4.60
2018-02-15T18:21:49.765Z,4.60
2018-02-15T18:24:17.249Z,4.60
2018-02-15T18:26:46.297Z,4.60
2018-02-15T18:29:13.797Z,4.60
2018-02-15T18:31:41.405Z,4.60
2018-02-15T18:34:08.977Z,4.60
2018-02-15T18:36:36.738Z,4.60
2018-02-15T18:39:04.215Z,4.60
2018-02-15T18:41:31.713Z,4.60
2018-02-15T18:43:59.984Z,4.60
2018-02-15T18:46:28.227Z,4.60
2018-02-15T18:48:55.725Z,4.60
2018-02-15T18:51:24.039Z,4.60
2018-02-15T18:53:51.533Z,4.60
2018-02-15T18:56:19.135Z,4.60
2018-02-15T18:58:46.632Z,4.60
2018-02-15T19:01:15.425Z,4.60
2018-02-15T19:03:43.284Z,4.50
2018-02-15T19:06:10.820Z,4.50
2018-02-15T19:08:38.325Z,4.60
2018-02-15T19:11:05.822Z,4.60
2018-02-15T19:13:33.309Z,4.60
2018-02-15T19:16:00.917Z,4.60
2018-02-15T19:18:29.785Z,4.60
2018-02-15T19:20:57.269Z,4.60
2018-02-15T19:23:25.509Z,4.60
2018-02-15T19:25:53.389Z,4.60
2018-02-15T19:28:21.415Z,4.60
2018-02-15T19:30:49.248Z,4.60
2018-02-15T19:33:16.849Z,4.60
2018-02-15T19:35:44.380Z,4.70
2018-02-15T19:38:12.753Z,4.70
2018-02-15T19:40:40.292Z,4.70
2018-02-15T19:43:08.631Z,4.60
2018-02-15T19:45:36.185Z,4.60
2018-02-15T19:48:03.682Z,4.60
2018-02-15T19:50:31.940Z,4.60
2018-02-15T19:53:00.198Z,4.70
2018-02-15T19:55:27.697Z,4.70
2018-02-15T19:57:55.944Z,4.70
2018-02-15T20:00:24.940Z,4.70
2018-02-15T20:02:52.461Z,4.70
2018-02-15T20:05:19.947Z,4.70
2018-02-15T20:07:47.437Z,4.80
2018-02-15T20:10:15.846Z,4.80
2018-02-15T20:12:43.324Z,4.80
2018-02-15T20:15:10.830Z,4.80
2018-02-15T20:17:39.458Z,4.70
2018-02-15T20:20:12.634Z,4.70
2018-02-15T20:22:40.208Z,4.70
2018-02-15T20:25:07.681Z,4.70
2018-02-15T20:27:40.782Z,4.70
2018-02-15T20:30:08.258Z,4.70
2018-02-15T20:32:36.782Z,4.70
2018-02-15T20:35:04.307Z,4.70
2018-02-15T20:37:38.265Z,4.70
2018-02-15T20:40:11.458Z,4.70
2018-02-15T20:42:38.940Z,4.70
2018-02-15T20:45:06.662Z,4.70
2018-02-15T20:47:34.403Z,4.70
2018-02-15T20:50:20.629Z,4.70
2018-02-15T20:52:53.742Z,4.70
2018-02-15T20:55:27.041Z,4.70
2018-02-15T20:57:55.337Z,4.70
2018-02-15T21:00:23.580Z,4.70
2018-02-15T21:02:51.053Z,4.70
2018-02-15T21:05:18.549Z,4.70
2018-02-15T21:07:46.020Z,4.70
2018-02-15T21:10:13.492Z,4.80
2018-02-15T21:12:40.998Z,4.80
2018-02-15T21:15:09.237Z,4.80
2018-02-15T21:17:36.714Z,4.80
2018-02-15T21:20:04.213Z,4.80
2018-02-15T21:22:31.689Z,4.80
2018-02-15T21:24:59.164Z,4.80
2018-02-15T21:27:26.911Z,4.90
2018-02-15T21:29:54.393Z,4.90
2018-02-15T21:32:21.869Z,5.00
2018-02-15T21:34:49.424Z,4.90
2018-02-15T21:37:16.861Z,5.00
2018-02-15T21:39:44.601Z,5.00
2018-02-15T21:42:12.093Z,5.00
2018-02-15T21:44:39.565Z,5.00
2018-02-15T21:47:07.133Z,4.90
2018-02-15T21:49:35.393Z,4.80
2018-02-15T21:52:02.868Z,4.90
2018-02-15T21:54:31.105Z,4.80
2018-02-15T21:56:58.601Z,4.80
2018-02-15T21:59:26.846Z,4.80
2018-02-15T22:01:54.429Z,4.80
2018-02-15T22:04:22.714Z,4.60
2018-02-15T22:06:50.986Z,4.60
2018-02-15T22:09:19.237Z,4.60
2018-02-15T22:11:46.730Z,4.60
2018-02-15T22:14:14.522Z,4.60
2018-02-15T22:16:42.002Z,4.70
2018-02-15T22:19:09.501Z,4.70
2018-02-15T22:21:37.757Z,4.80
2018-02-15T22:24:05.231Z,4.80
2018-02-15T22:26:33.492Z,4.80
2018-02-15T22:29:01.063Z,4.80
2018-02-15T22:31:29.310Z,4.70
2018-02-15T22:33:56.813Z,4.70
2018-02-15T22:36:24.285Z,4.70
2018-02-15T22:38:51.761Z,4.70
2018-02-15T22:41:19.254Z,4.60
2018-02-15T22:43:46.761Z,4.60
2018-02-15T22:46:14.279Z,4.60
2018-02-15T22:48:42.541Z,4.60
2018-02-15T22:51:10.115Z,4.60
2018-02-15T22:53:38.845Z,4.50
2018-02-15T22:56:06.341Z,4.50
2018-02-15T22:58:33.821Z,4.50
2018-02-15T23:01:02.068Z,4.50
2018-02-15T23:03:29.567Z,4.50
2018-02-15T23:05:57.086Z,4.50
2018-02-15T23:08:24.557Z,4.50
2018-02-15T23:10:52.058Z,4.50
2018-02-15T23:13:19.533Z,4.50
2018-02-15T23:15:47.037Z,4.40
2018-02-15T23:18:15.297Z,4.40
2018-02-15T23:20:42.869Z,4.40
2018-02-15T23:23:11.149Z,4.40
2018-02-15T23:25:39.409Z,4.40
2018-02-15T23:28:06.881Z,4.40
2018-02-15T23:30:35.116Z,4.40
2018-02-15T23:33:02.613Z,4.40
2018-02-15T23:35:30.853Z,4.30
2018-02-15T23:37:58.325Z,4.30
2018-02-15T23:40:25.900Z,4.30
2018-02-15T23:42:54.141Z,4.30
2018-02-15T23:45:21.613Z,4.20
2018-02-15T23:47:49.112Z,4.30
2018-02-15T23:50:16.589Z,4.30
2018-02-15T23:52:44.109Z,4.30
2018-02-15T23:55:12.843Z,4.30
2018-02-15T23:57:40.605Z,4.30
